createdAt,value
2017-10-12T00:01:01.415Z,4.40
2017-10-12T00:03:31.910Z,5.00
2017-10-12T00:06:02.383Z,4.50
2017-10-12T00:08:37.385Z,4.97
2017-10-12T00:11:07.903Z,4.27
2017-10-12T00:13:38.796Z,4.07
2017-10-12T00:16:09.294Z,4.50
2017-10-12T00:18:39.565Z,4.33
2017-10-12T00:21:10.537Z,4.73
2017-10-12T00:23:40.747Z,4.80
2017-10-12T00:26:11.328Z,4.77
2017-10-12T00:28:41.459Z,4.30
2017-10-12T00:31:11.628Z,4.87
2017-10-12T00:33:41.858Z,4.20
2017-10-12T00:36:12.118Z,4.40
2017-10-12T00:38:42.586Z,4.20
2017-10-12T00:41:13.515Z,5.13
2017-10-12T00:43:44.739Z,4.70
2017-10-12T00:46:14.870Z,4.60
2017-10-12T00:48:44.998Z,4.43
2017-10-12T00:51:15.189Z,5.20
2017-10-12T00:53:45.417Z,4.30
2017-10-12T00:56:16.037Z,4.70
2017-10-12T00:58:46.239Z,4.07
2017-10-12T01:01:16.446Z,4.13
2017-10-12T01:03:46.668Z,3.73
2017-10-12T01:06:16.805Z,3.57
2017-10-12T01:08:47.333Z,3.93
2017-10-12T01:11:17.460Z,3.37
2017-10-12T01:13:48.150Z,3.50
2017-10-12T01:16:19.047Z,3.60
2017-10-12T01:18:49.142Z,3.60
2017-10-12T01:21:19.349Z,3.87
2017-10-12T01:23:49.555Z,3.70
2017-10-12T01:26:21.122Z,3.93
2017-10-12T01:28:51.306Z,4.10
2017-10-12T01:31:22.241Z,3.80
2017-10-12T01:33:52.477Z,3.70
2017-10-12T01:36:22.698Z,4.27
2017-10-12T01:38:53.880Z,4.40
2017-10-12T01:41:24.095Z,3.33
2017-10-12T01:43:54.664Z,3.70
2017-10-12T01:46:24.904Z,2.70
2017-10-12T01:49:00.912Z,3.70
2017-10-12T01:51:31.648Z,3.10
2017-10-12T01:54:01.652Z,2.80
2017-10-12T01:56:33.661Z,2.60
2017-10-12T01:59:03.859Z,2.60
2017-10-12T02:01:35.212Z,3.53
2017-10-12T02:04:05.366Z,2.70
2017-10-12T02:06:35.467Z,3.00
2017-10-12T02:09:05.910Z,3.20
2017-10-12T02:11:36.071Z,3.13
2017-10-12T02:14:07.377Z,3.33
2017-10-12T02:16:37.529Z,4.13
2017-10-12T02:19:07.672Z,3.67
2017-10-12T02:21:37.818Z,3.23
2017-10-12T02:24:07.954Z,3.20
2017-10-12T02:26:38.661Z,2.70
2017-10-12T02:29:08.851Z,2.70
2017-10-12T02:31:39.365Z,2.20
2017-10-12T02:34:10.380Z,2.00
2017-10-12T02:36:40.572Z,2.20
2017-10-12T02:39:10.720Z,2.13
2017-10-12T02:41:40.831Z,2.33
2017-10-12T02:44:11.269Z,2.20
2017-10-12T02:46:41.522Z,2.40
2017-10-12T02:49:11.699Z,1.97
2017-10-12T02:51:41.869Z,1.90
2017-10-12T02:54:12.020Z,2.20
2017-10-12T02:56:43.191Z,2.20
2017-10-12T02:59:13.312Z,2.40
2017-10-12T03:01:43.608Z,1.40
2017-10-12T03:04:13.816Z,1.90
2017-10-12T03:06:43.954Z,2.60
2017-10-12T03:09:14.139Z,1.30
2017-10-12T03:11:44.286Z,1.23
2017-10-12T03:14:14.994Z,1.70
2017-10-12T03:16:45.311Z,1.27
2017-10-12T03:19:15.737Z,1.10
2017-10-12T03:21:45.899Z,1.23
2017-10-12T03:24:15.997Z,1.37
2017-10-12T03:26:46.121Z,1.47
2017-10-12T03:29:16.243Z,1.43
2017-10-12T03:31:46.792Z,1.33
2017-10-12T03:34:16.930Z,1.03
2017-10-12T03:36:48.136Z,0.97
2017-10-12T03:39:18.325Z,0.90
2017-10-12T03:41:48.426Z,1.00
2017-10-12T03:44:19.881Z,1.20
2017-10-12T03:46:50.840Z,1.27
2017-10-12T03:49:21.534Z,1.53
2017-10-12T03:51:52.683Z,1.63
2017-10-12T03:54:23.807Z,1.73
2017-10-12T03:56:53.959Z,1.27
2017-10-12T03:59:24.195Z,1.47
2017-10-12T04:01:54.610Z,1.77
2017-10-12T04:04:25.554Z,2.40
2017-10-12T04:06:55.815Z,1.50
2017-10-12T04:09:25.941Z,1.50
2017-10-12T04:11:56.054Z,2.27
2017-10-12T04:14:26.537Z,1.73
2017-10-12T04:16:57.419Z,1.47
2017-10-12T04:19:27.918Z,1.30
2017-10-12T04:21:58.093Z,2.37
2017-10-12T04:24:28.222Z,1.90
2017-10-12T04:26:58.394Z,1.53
2017-10-12T04:29:28.544Z,1.37
2017-10-12T04:31:58.819Z,1.10
2017-10-12T04:34:28.959Z,1.50
2017-10-12T04:36:59.291Z,1.60
2017-10-12T04:39:29.410Z,1.30
2017-10-12T04:41:59.538Z,1.03
2017-10-12T04:44:29.669Z,1.20
2017-10-12T04:46:59.819Z,1.37
2017-10-12T04:49:30.984Z,1.30
2017-10-12T04:52:01.135Z,1.40
2017-10-12T04:54:31.275Z,0.97
2017-10-12T04:57:01.688Z,0.90
2017-10-12T04:59:32.105Z,1.23
2017-10-12T05:02:02.237Z,1.00
2017-10-12T05:04:32.455Z,1.50
2017-10-12T05:07:02.814Z,1.07
2017-10-12T05:09:33.798Z,1.60
2017-10-12T05:12:03.964Z,1.37
2017-10-12T05:14:34.127Z,1.60
2017-10-12T05:17:04.353Z,1.40
2017-10-12T05:19:34.822Z,1.77
2017-10-12T05:22:05.060Z,1.63
2017-10-12T05:24:35.186Z,1.37
2017-10-12T05:27:05.598Z,1.50
2017-10-12T05:29:35.708Z,1.40
2017-10-12T05:32:06.021Z,0.80
2017-10-12T05:34:36.284Z,1.07
2017-10-12T05:37:07.760Z,1.10
2017-10-12T05:39:37.893Z,1.13
2017-10-12T05:42:08.096Z,1.43
2017-10-12T05:44:38.288Z,1.00
2017-10-12T05:47:08.418Z,1.40
2017-10-12T05:49:39.791Z,1.50
2017-10-12T05:52:10.155Z,1.00
2017-10-12T05:54:42.257Z,0.83
2017-10-12T05:57:13.154Z,0.97
2017-10-12T05:59:43.376Z,1.00
2017-10-12T06:02:13.518Z,0.87
2017-10-12T06:04:43.697Z,0.77
2017-10-12T06:07:14.236Z,0.63
2017-10-12T06:09:44.602Z,0.90
2017-10-12T06:12:14.932Z,0.53
2017-10-12T06:14:46.050Z,0.70
2017-10-12T06:17:16.431Z,0.70
2017-10-12T06:19:47.693Z,0.73
2017-10-12T06:22:17.835Z,0.70
2017-10-12T06:24:48.235Z,0.60
2017-10-12T06:27:19.152Z,0.60
2017-10-12T06:29:49.520Z,0.57
2017-10-12T06:32:19.651Z,0.60
2017-10-12T06:34:49.810Z,1.00
2017-10-12T06:37:21.142Z,0.87
2017-10-12T06:39:52.061Z,1.00
2017-10-12T06:42:22.250Z,1.00
2017-10-12T06:44:52.403Z,0.73
2017-10-12T06:47:22.594Z,0.70
2017-10-12T06:49:53.985Z,1.10
2017-10-12T06:52:24.098Z,1.00
2017-10-12T06:54:55.251Z,1.03
2017-10-12T06:57:25.387Z,1.10
2017-10-12T06:59:56.313Z,1.00
2017-10-12T07:02:27.229Z,0.87
2017-10-12T07:04:57.469Z,0.93
2017-10-12T07:07:28.844Z,1.37
2017-10-12T07:09:59.003Z,1.20
2017-10-12T07:12:30.203Z,1.00
2017-10-12T07:15:00.468Z,0.97
2017-10-12T07:17:30.610Z,1.10
2017-10-12T07:20:00.800Z,1.50
2017-10-12T07:22:30.914Z,1.50
2017-10-12T07:25:01.575Z,1.07
2017-10-12T07:27:31.711Z,1.17
2017-10-12T07:30:01.914Z,1.57
2017-10-12T07:32:32.132Z,1.30
2017-10-12T07:35:02.486Z,1.47
2017-10-12T07:37:32.885Z,1.43
2017-10-12T07:40:03.045Z,1.27
2017-10-12T07:42:34.159Z,1.20
2017-10-12T07:45:05.937Z,1.77
2017-10-12T07:47:36.834Z,1.43
2017-10-12T07:50:06.971Z,1.30
2017-10-12T07:52:37.144Z,1.47
2017-10-12T07:55:07.912Z,1.53
2017-10-12T07:57:38.043Z,1.27
2017-10-12T08:02:42.226Z,1.67
2017-10-12T08:05:12.395Z,1.50
2017-10-12T08:07:43.550Z,1.03
2017-10-12T08:10:13.731Z,1.70
2017-10-12T08:12:45.161Z,1.57
2017-10-12T08:15:15.371Z,1.90
2017-10-12T08:17:45.501Z,2.57
2017-10-12T08:20:15.648Z,1.83
2017-10-12T08:22:45.790Z,2.70
2017-10-12T08:25:16.433Z,2.90
2017-10-12T08:27:46.580Z,3.17
2017-10-12T08:30:16.719Z,2.63
2017-10-12T08:32:46.871Z,1.70
2017-10-12T08:35:17.004Z,2.77
2017-10-12T08:37:47.134Z,2.80
2017-10-12T08:40:17.344Z,2.37
2017-10-12T08:42:47.697Z,2.63
2017-10-12T08:45:18.591Z,2.43
2017-10-12T08:47:48.968Z,2.40
2017-10-12T08:50:19.869Z,2.07
2017-10-12T08:52:50.247Z,2.67
2017-10-12T08:55:20.857Z,2.50
2017-10-12T08:57:51.763Z,2.30
2017-10-12T09:00:22.098Z,2.40
2017-10-12T09:02:52.253Z,2.33
2017-10-12T09:05:22.402Z,2.23
2017-10-12T09:07:52.742Z,1.90
2017-10-12T09:10:22.974Z,2.40
2017-10-12T09:12:53.608Z,2.57
2017-10-12T09:15:23.761Z,2.10
2017-10-12T09:17:54.649Z,2.23
2017-10-12T09:20:24.824Z,2.70
2017-10-12T09:22:55.799Z,2.10
2017-10-12T09:25:26.119Z,2.30
2017-10-12T09:27:56.276Z,3.03
2017-10-12T09:30:27.547Z,1.80
2017-10-12T09:32:57.728Z,2.47
2017-10-12T09:35:27.871Z,2.93
2017-10-12T09:37:58.029Z,3.27
2017-10-12T09:40:28.183Z,2.43
2017-10-12T09:42:58.360Z,2.50
2017-10-12T09:45:28.599Z,2.73
2017-10-12T09:47:58.722Z,2.70
2017-10-12T09:50:28.879Z,2.80
2017-10-12T09:52:59.028Z,2.73
2017-10-12T09:55:29.971Z,2.07
2017-10-12T09:58:00.103Z,2.73
2017-10-12T10:00:30.735Z,2.00
2017-10-12T10:03:00.875Z,2.20
2017-10-12T10:05:31.033Z,1.77
2017-10-12T10:08:01.217Z,1.60
2017-10-12T10:10:31.380Z,1.67
2017-10-12T10:13:01.813Z,1.43
2017-10-12T10:15:32.820Z,1.53
2017-10-12T10:18:03.458Z,1.47
2017-10-12T10:20:33.608Z,1.30
2017-10-12T10:23:04.548Z,1.70
2017-10-12T10:25:35.459Z,1.23
2017-10-12T10:28:05.769Z,1.50
2017-10-12T10:30:36.423Z,1.63
2017-10-12T10:33:06.776Z,1.00
2017-10-12T10:35:37.917Z,1.40
2017-10-12T10:38:08.827Z,1.30
2017-10-12T10:40:38.997Z,1.90
2017-10-12T10:43:09.548Z,1.07
2017-10-12T10:45:39.703Z,1.53
2017-10-12T10:48:10.275Z,1.53
2017-10-12T10:50:40.439Z,0.90
2017-10-12T10:53:10.793Z,1.40
2017-10-12T10:55:41.777Z,1.20
2017-10-12T10:58:12.108Z,1.47
2017-10-12T11:00:42.810Z,2.00
2017-10-12T11:03:13.134Z,1.10
2017-10-12T11:05:43.283Z,1.43
2017-10-12T11:08:13.420Z,1.73
2017-10-12T11:10:43.579Z,1.90
2017-10-12T11:13:14.462Z,1.10
2017-10-12T11:15:44.617Z,1.30
2017-10-12T11:18:15.925Z,1.30
2017-10-12T11:20:46.111Z,1.50
2017-10-12T11:23:16.281Z,1.17
2017-10-12T11:25:46.479Z,1.20
2017-10-12T11:28:16.623Z,1.77
2017-10-12T11:30:47.162Z,2.03
2017-10-12T11:33:17.288Z,2.00
2017-10-12T11:35:47.766Z,1.63
2017-10-12T11:38:17.914Z,1.83
2017-10-12T11:40:48.087Z,2.17
2017-10-12T11:43:18.995Z,1.80
2017-10-12T11:45:49.124Z,1.47
2017-10-12T11:48:19.383Z,1.67
2017-10-12T11:50:49.743Z,1.93
2017-10-12T11:53:19.902Z,2.03
2017-10-12T11:55:50.149Z,2.07
2017-10-12T11:58:20.307Z,2.53
2017-10-12T12:00:50.902Z,2.20
2017-10-12T12:03:21.296Z,2.27
2017-10-12T12:05:52.737Z,2.50
2017-10-12T12:08:23.671Z,2.47
2017-10-12T12:10:53.831Z,3.50
2017-10-12T12:13:24.042Z,2.70
2017-10-12T12:15:54.187Z,3.40
2017-10-12T12:18:24.576Z,2.73
2017-10-12T12:20:55.503Z,2.30
2017-10-12T12:23:25.660Z,2.87
2017-10-12T12:25:56.099Z,3.20
2017-10-12T12:28:26.303Z,3.30
2017-10-12T12:30:56.516Z,3.20
2017-10-12T12:33:27.541Z,3.30
2017-10-12T12:35:59.395Z,2.97
2017-10-12T12:38:30.390Z,3.83
2017-10-12T12:41:01.337Z,4.50
2017-10-12T12:43:31.567Z,3.80
2017-10-12T12:46:01.910Z,4.07
2017-10-12T12:48:32.364Z,3.20
2017-10-12T12:51:02.542Z,2.90
2017-10-12T12:53:33.142Z,3.27
2017-10-12T12:56:03.377Z,3.40
2017-10-12T12:58:33.567Z,3.90
2017-10-12T13:01:03.776Z,3.57
2017-10-12T13:03:33.992Z,4.80
2017-10-12T13:06:05.248Z,5.10
2017-10-12T13:08:36.229Z,5.83
2017-10-12T13:11:06.383Z,6.40
2017-10-12T13:13:36.567Z,7.37
2017-10-12T13:16:06.892Z,7.80
2017-10-12T13:18:37.444Z,6.80
2017-10-12T13:21:07.585Z,7.70
2017-10-12T13:23:38.758Z,7.00
2017-10-12T13:26:08.944Z,7.70
2017-10-12T13:28:39.194Z,7.07
2017-10-12T13:31:09.435Z,7.27
2017-10-12T13:33:39.627Z,7.43
2017-10-12T13:36:11.109Z,8.67
2017-10-12T13:38:41.475Z,7.63
2017-10-12T13:41:12.484Z,8.00
2017-10-12T13:43:42.709Z,8.30
2017-10-12T13:46:13.104Z,8.70
2017-10-12T13:48:43.462Z,6.97
2017-10-12T13:51:13.790Z,8.33
2017-10-12T13:53:44.357Z,8.63
2017-10-12T13:56:15.376Z,8.20
2017-10-12T13:58:45.798Z,7.57
2017-10-12T14:01:16.940Z,7.70
2017-10-12T14:03:47.162Z,6.50
2017-10-12T14:06:17.855Z,8.00
2017-10-12T14:08:48.154Z,7.60
2017-10-12T14:11:18.883Z,7.67
2017-10-12T14:13:50.008Z,7.50
2017-10-12T14:16:21.054Z,8.97
2017-10-12T14:18:52.116Z,8.23
2017-10-12T14:21:23.096Z,7.13
2017-10-12T14:23:53.828Z,7.40
2017-10-12T14:26:24.124Z,7.13
2017-10-12T14:28:54.292Z,6.43
2017-10-12T14:31:24.522Z,7.47
2017-10-12T14:33:54.738Z,7.30
2017-10-12T14:36:25.541Z,7.00
2017-10-12T14:38:56.777Z,7.13
2017-10-12T14:41:27.586Z,6.90
2017-10-12T14:43:58.904Z,7.97
2017-10-12T14:46:29.867Z,7.10
2017-10-12T14:49:00.843Z,6.87
2017-10-12T14:51:31.099Z,7.00
2017-10-12T14:54:02.262Z,7.33
2017-10-12T14:56:32.504Z,8.10
2017-10-12T14:59:03.639Z,7.10
2017-10-12T15:01:34.719Z,7.37
2017-10-12T15:04:06.268Z,7.00
2017-10-12T15:06:36.915Z,7.63
2017-10-12T15:09:07.330Z,7.93
2017-10-12T15:11:38.139Z,7.20
2017-10-12T15:14:08.340Z,7.57
2017-10-12T15:16:38.632Z,7.20
2017-10-12T15:19:08.850Z,7.03
2017-10-12T15:21:39.048Z,6.20
2017-10-12T15:24:09.740Z,6.40
2017-10-12T15:26:40.820Z,5.90
2017-10-12T15:29:11.115Z,6.00
2017-10-12T15:31:41.503Z,5.37
2017-10-12T15:34:12.659Z,5.50
2017-10-12T15:36:42.876Z,5.03
2017-10-12T15:39:13.823Z,5.13
2017-10-12T15:41:44.165Z,3.87
2017-10-12T15:44:14.476Z,3.73
2017-10-12T15:46:45.788Z,3.90
2017-10-12T15:49:21.161Z,4.40
2017-10-12T15:51:51.495Z,4.37
2017-10-12T15:54:22.146Z,5.07
2017-10-12T15:56:53.167Z,4.77
2017-10-12T15:59:24.089Z,5.53
2017-10-12T16:01:54.238Z,5.57
2017-10-12T16:04:24.485Z,7.10
2017-10-12T16:06:54.640Z,6.50
2017-10-12T16:09:24.818Z,5.67
2017-10-12T16:11:56.067Z,7.03
2017-10-12T16:14:27.004Z,6.40
2017-10-12T16:16:57.241Z,4.93
2017-10-12T16:19:27.402Z,3.93
2017-10-12T16:21:57.543Z,3.80
2017-10-12T16:24:27.928Z,4.10
2017-10-12T16:26:58.911Z,4.07
2017-10-12T16:29:29.312Z,4.73
2017-10-12T16:31:59.498Z,4.40
2017-10-12T16:34:29.754Z,4.80
2017-10-12T16:36:59.993Z,3.70
2017-10-12T16:39:31.283Z,4.10
2017-10-12T16:42:01.999Z,3.60
2017-10-12T16:44:33.086Z,3.83
2017-10-12T16:47:04.354Z,4.40
2017-10-12T16:49:34.565Z,4.10
2017-10-12T16:52:04.712Z,3.30
2017-10-12T16:54:35.199Z,3.30
2017-10-12T16:57:05.423Z,3.07
2017-10-12T16:59:35.954Z,2.83
2017-10-12T17:02:06.339Z,2.90
2017-10-12T17:04:37.300Z,3.20
2017-10-12T17:07:07.449Z,3.47
2017-10-12T17:09:37.602Z,2.87
2017-10-12T17:12:09.155Z,3.00
2017-10-12T17:14:40.359Z,2.37
2017-10-12T17:17:10.499Z,2.30
2017-10-12T17:19:40.629Z,2.37
2017-10-12T17:22:10.785Z,2.53
2017-10-12T17:24:40.994Z,2.77
2017-10-12T17:27:11.964Z,2.80
2017-10-12T17:29:42.471Z,2.80
2017-10-12T17:32:12.639Z,2.23
2017-10-12T17:34:42.841Z,3.37
2017-10-12T17:37:13.107Z,3.40
2017-10-12T17:39:44.063Z,2.67
2017-10-12T17:42:15.524Z,2.83
2017-10-12T17:44:45.658Z,2.40
2017-10-12T17:47:16.182Z,2.43
2017-10-12T17:49:46.598Z,2.70
2017-10-12T17:52:16.815Z,2.20
2017-10-12T17:54:47.951Z,1.97
2017-10-12T17:57:19.073Z,1.97
2017-10-12T17:59:49.868Z,1.73
2017-10-12T18:02:20.016Z,2.60
2017-10-12T18:04:50.136Z,2.07
2017-10-12T18:07:20.332Z,1.93
2017-10-12T18:09:50.458Z,1.80
2017-10-12T18:14:50.821Z,1.80
2017-10-12T18:17:21.495Z,2.17
2017-10-12T18:19:51.637Z,1.90
2017-10-12T18:22:21.824Z,1.80
2017-10-12T18:24:52.012Z,1.70
2017-10-12T18:27:22.186Z,1.90
2017-10-12T18:29:52.712Z,2.00
2017-10-12T18:32:22.891Z,1.53
2017-10-12T18:34:53.464Z,1.63
2017-10-12T18:37:23.665Z,1.90
2017-10-12T18:39:53.831Z,2.00
2017-10-12T18:42:24.038Z,1.93
2017-10-12T18:44:54.188Z,2.10
2017-10-12T18:47:24.873Z,2.33
2017-10-12T18:52:25.201Z,2.50
2017-10-12T18:54:55.351Z,2.00
2017-10-12T18:57:25.531Z,2.20
2017-10-12T18:59:56.893Z,2.17
2017-10-12T19:02:27.029Z,2.00
2017-10-12T19:04:57.724Z,2.53
2017-10-12T19:07:27.878Z,1.73
2017-10-12T19:09:58.020Z,2.03
2017-10-12T19:12:28.166Z,2.00
2017-10-12T19:14:58.298Z,2.10
2017-10-12T19:17:28.656Z,1.90
2017-10-12T19:19:59.059Z,2.27
2017-10-12T19:22:30.236Z,2.70
2017-10-12T19:25:00.655Z,2.30
2017-10-12T19:27:30.856Z,1.80
2017-10-12T19:30:03.095Z,2.27
2017-10-12T19:32:34.167Z,2.37
2017-10-12T19:35:06.127Z,1.97
2017-10-12T19:37:37.129Z,2.50
2017-10-12T19:40:07.262Z,2.47
2017-10-12T19:42:37.523Z,1.97
2017-10-12T19:45:08.483Z,2.53
2017-10-12T19:47:39.221Z,1.80
2017-10-12T19:50:09.432Z,2.33
2017-10-12T19:52:39.591Z,2.20
2017-10-12T19:55:09.723Z,2.23
2017-10-12T19:57:39.843Z,2.23
2017-10-12T20:00:09.991Z,2.00
2017-10-12T20:02:40.858Z,2.03
2017-10-12T20:05:11.218Z,2.03
2017-10-12T20:07:41.338Z,2.43
2017-10-12T20:10:11.516Z,1.63
2017-10-12T20:12:41.662Z,2.30
2017-10-12T20:15:11.791Z,1.73
2017-10-12T20:17:42.386Z,2.40
2017-10-12T20:20:12.592Z,1.67
2017-10-12T20:22:43.065Z,2.27
2017-10-12T20:25:13.260Z,2.10
2017-10-12T20:27:43.370Z,2.10
2017-10-12T20:30:13.587Z,2.27
2017-10-12T20:32:43.714Z,1.77
2017-10-12T20:35:14.113Z,3.43
2017-10-12T20:37:45.001Z,1.97
2017-10-12T20:40:15.129Z,2.50
2017-10-12T20:42:45.267Z,2.60
2017-10-12T20:45:15.381Z,2.37
2017-10-12T20:47:46.994Z,2.53
2017-10-12T20:50:17.110Z,2.43
2017-10-12T20:52:47.327Z,2.93
2017-10-12T20:55:17.479Z,3.07
2017-10-12T20:57:47.613Z,2.37
2017-10-12T21:00:17.749Z,2.77
2017-10-12T21:05:18.894Z,3.13
2017-10-12T21:07:50.082Z,3.10
2017-10-12T21:10:20.223Z,3.00
2017-10-12T21:12:50.350Z,3.63
2017-10-12T21:15:20.479Z,3.10
2017-10-12T21:17:50.603Z,3.60
2017-10-12T21:20:20.713Z,3.53
2017-10-12T21:22:51.933Z,3.40
2017-10-12T21:25:22.056Z,3.47
2017-10-12T21:27:52.217Z,4.63
2017-10-12T21:30:22.343Z,3.77
2017-10-12T21:32:52.467Z,3.67
2017-10-12T21:35:22.760Z,3.47
2017-10-12T21:37:52.950Z,4.37
2017-10-12T21:40:24.197Z,3.40
2017-10-12T21:42:54.359Z,4.30
2017-10-12T21:45:24.557Z,3.60
2017-10-12T21:47:54.698Z,4.17
2017-10-12T21:50:24.838Z,3.63
2017-10-12T21:52:55.380Z,4.00
2017-10-12T21:55:26.290Z,4.17
2017-10-12T21:57:56.465Z,3.17
2017-10-12T22:00:28.004Z,3.37
2017-10-12T22:02:58.498Z,3.00
2017-10-12T22:05:28.679Z,3.20
2017-10-12T22:07:58.832Z,3.90
2017-10-12T22:10:30.958Z,2.50
2017-10-12T22:13:01.952Z,2.47
2017-10-12T22:15:32.161Z,2.60
2017-10-12T22:18:02.366Z,2.27
2017-10-12T22:20:32.539Z,2.43
2017-10-12T22:23:04.068Z,2.50
2017-10-12T22:25:34.192Z,2.30
2017-10-12T22:28:04.323Z,2.33
2017-10-12T22:30:35.247Z,1.87
2017-10-12T22:33:06.016Z,1.83
2017-10-12T22:35:36.196Z,1.60
2017-10-12T22:38:06.431Z,1.73
2017-10-12T22:40:38.634Z,2.03
2017-10-12T22:43:08.826Z,1.53
2017-10-12T22:45:39.764Z,2.53
2017-10-12T22:48:10.666Z,2.40
2017-10-12T22:50:40.790Z,2.30
2017-10-12T22:53:11.009Z,1.97
2017-10-12T22:55:41.224Z,1.80
2017-10-12T22:58:11.480Z,1.53
2017-10-12T23:00:41.600Z,2.07
2017-10-12T23:03:11.718Z,1.80
2017-10-12T23:05:41.832Z,1.90
2017-10-12T23:08:12.027Z,1.90
2017-10-12T23:10:43.318Z,1.93
2017-10-12T23:13:14.217Z,2.10
2017-10-12T23:15:44.354Z,1.83
2017-10-12T23:18:15.635Z,1.87
2017-10-12T23:20:46.550Z,2.30
2017-10-12T23:23:16.887Z,2.63
2017-10-12T23:25:47.849Z,2.00
2017-10-12T23:28:19.247Z,1.90
2017-10-12T23:30:49.421Z,1.77
2017-10-12T23:33:19.588Z,2.00
2017-10-12T23:35:49.719Z,1.97
2017-10-12T23:38:19.842Z,1.77
2017-10-12T23:40:50.455Z,2.23
2017-10-12T23:43:20.565Z,2.07
2017-10-12T23:45:51.736Z,1.60
2017-10-12T23:48:21.890Z,2.23
2017-10-12T23:50:52.027Z,1.80
2017-10-12T23:53:22.162Z,1.87
2017-10-12T23:55:52.367Z,1.90
2017-10-12T23:58:22.731Z,0.90
